sensor_id;sensor_type;location;lat;lon;timestamp;pressure;altitude;pressure_sealevel;temperature;humidity
12781;BME280;6454;43.304;24.344;2022-12-07T00:00:14;100496.91;;;6.93;98.66
12781;BME280;6454;43.304;24.344;2022-12-07T00:02:41;100503.41;;;6.97;98.06
12781;BME280;6454;43.304;24.344;2022-12-07T00:05:08;100494.69;;;6.90;98.15
12781;BME280;6454;43.304;24.344;2022-12-07T00:07:35;100493.38;;;6.92;99.15
12781;BME280;6454;43.304;24.344;2022-12-07T00:10:05;100497.19;;;6.96;98.70
12781;BME280;6454;43.304;24.344;2022-12-07T00:12:32;100501.47;;;6.92;99.16
12781;BME280;6454;43.304;24.344;2022-12-07T00:14:58;100499.00;;;6.91;99.43
12781;BME280;6454;43.304;24.344;2022-12-07T00:17:25;100488.88;;;6.98;99.64
12781;BME280;6454;43.304;24.344;2022-12-07T00:19:52;100496.69;;;6.99;99.41
12781;BME280;6454;43.304;24.344;2022-12-07T00:22:19;100492.06;;;6.95;99.62
12781;BME280;6454;43.304;24.344;2022-12-07T00:24:45;100496.41;;;7.01;99.63
12781;BME280;6454;43.304;24.344;2022-12-07T00:27:14;100487.28;;;7.02;99.01
12781;BME280;6454;43.304;24.344;2022-12-07T00:29:40;100488.53;;;6.94;98.99
12781;BME280;6454;43.304;24.344;2022-12-07T00:32:07;100488.88;;;6.98;99.30
12781;BME280;6454;43.304;24.344;2022-12-07T00:34:34;100481.81;;;6.97;99.10
12781;BME280;6454;43.304;24.344;2022-12-07T00:37:01;100487.53;;;7.00;98.58
12781;BME280;6454;43.304;24.344;2022-12-07T00:39:28;100472.31;;;6.89;99.48
12781;BME280;6454;43.304;24.344;2022-12-07T00:41:54;100484.84;;;7.00;99.35
12781;BME280;6454;43.304;24.344;2022-12-07T00:44:23;100487.22;;;6.97;99.20
12781;BME280;6454;43.304;24.344;2022-12-07T00:46:49;100485.47;;;6.86;100.00
12781;BME280;6454;43.304;24.344;2022-12-07T00:49:16;100487.13;;;6.87;100.00
12781;BME280;6454;43.304;24.344;2022-12-07T00:51:43;100483.41;;;6.93;100.00
12781;BME280;6454;43.304;24.344;2022-12-07T00:54:10;100477.44;;;6.91;99.77
12781;BME280;6454;43.304;24.344;2022-12-07T00:56:36;100477.75;;;6.94;100.00
12781;BME280;6454;43.304;24.344;2022-12-07T00:59:03;100479.69;;;6.99;99.50
12781;BME280;6454;43.304;24.344;2022-12-07T01:01:33;100481.78;;;6.92;99.47
12781;BME280;6454;43.304;24.344;2022-12-07T01:04:01;100482.31;;;6.94;100.00
12781;BME280;6454;43.304;24.344;2022-12-07T01:06:29;100484.78;;;6.95;100.00
12781;BME280;6454;43.304;24.344;2022-12-07T01:08:57;100486.66;;;6.95;100.00
12781;BME280;6454;43.304;24.344;2022-12-07T01:11:25;100475.50;;;6.86;100.00
12781;BME280;6454;43.304;24.344;2022-12-07T01:13:53;100473.41;;;6.93;100.00
12781;BME280;6454;43.304;24.344;2022-12-07T01:16:22;100467.78;;;6.95;100.00
12781;BME280;6454;43.304;24.344;2022-12-07T01:18:53;100467.47;;;6.91;100.00
12781;BME280;6454;43.304;24.344;2022-12-07T01:21:22;100462.69;;;6.98;100.00
12781;BME280;6454;43.304;24.344;2022-12-07T01:23:50;100460.56;;;7.00;100.00
12781;BME280;6454;43.304;24.344;2022-12-07T01:26:19;100454.03;;;6.96;99.67
12781;BME280;6454;43.304;24.344;2022-12-07T01:28:47;100448.34;;;6.93;99.44
12781;BME280;6454;43.304;24.344;2022-12-07T01:31:15;100428.28;;;6.84;99.07
12781;BME280;6454;43.304;24.344;2022-12-07T01:33:44;100456.19;;;6.94;99.46
12781;BME280;6454;43.304;24.344;2022-12-07T01:36:15;100448.03;;;6.89;99.80
12781;BME280;6454;43.304;24.344;2022-12-07T01:38:43;100452.66;;;6.94;99.97
12781;BME280;6454;43.304;24.344;2022-12-07T01:41:11;100458.56;;;6.91;99.65
12781;BME280;6454;43.304;24.344;2022-12-07T01:44:10;100451.00;;;6.88;100.00
12781;BME280;6454;43.304;24.344;2022-12-07T01:46:37;100439.19;;;6.94;99.91
12781;BME280;6454;43.304;24.344;2022-12-07T01:49:07;100434.00;;;6.87;100.00
12781;BME280;6454;43.304;24.344;2022-12-07T01:51:38;100432.75;;;6.73;100.00
12781;BME280;6454;43.304;24.344;2022-12-07T01:54:07;100429.72;;;6.65;100.00
12781;BME280;6454;43.304;24.344;2022-12-07T01:56:34;100425.66;;;6.62;100.00
12781;BME280;6454;43.304;24.344;2022-12-07T01:59:02;100419.72;;;6.60;100.00
12781;BME280;6454;43.304;24.344;2022-12-07T02:01:30;100421.88;;;6.63;100.00
12781;BME280;6454;43.304;24.344;2022-12-07T02:03:57;100420.25;;;6.62;100.00
12781;BME280;6454;43.304;24.344;2022-12-07T02:06:25;100426.75;;;6.66;100.00
12781;BME280;6454;43.304;24.344;2022-12-07T02:08:53;100394.53;;;6.49;100.00
12781;BME280;6454;43.304;24.344;2022-12-07T02:11:21;100425.25;;;6.75;100.00
12781;BME280;6454;43.304;24.344;2022-12-07T02:13:48;100425.81;;;6.77;99.58
12781;BME280;6454;43.304;24.344;2022-12-07T02:16:27;100426.25;;;6.69;100.00
12781;BME280;6454;43.304;24.344;2022-12-07T02:19:04;100432.53;;;6.75;100.00
12781;BME280;6454;43.304;24.344;2022-12-07T02:21:40;100440.13;;;6.78;99.40
12781;BME280;6454;43.304;24.344;2022-12-07T02:24:27;100430.84;;;6.69;100.00
12781;BME280;6454;43.304;24.344;2022-12-07T02:30:05;100422.69;;;6.64;100.00
12781;BME280;6454;43.304;24.344;2022-12-07T02:32:41;100426.00;;;6.71;100.00
12781;BME280;6454;43.304;24.344;2022-12-07T02:35:12;100415.09;;;6.61;100.00
12781;BME280;6454;43.304;24.344;2022-12-07T02:37:47;100417.34;;;6.69;100.00
12781;BME280;6454;43.304;24.344;2022-12-07T02:40:19;100405.50;;;6.70;100.00
12781;BME280;6454;43.304;24.344;2022-12-07T02:42:52;100402.56;;;6.71;99.66
12781;BME280;6454;43.304;24.344;2022-12-07T02:45:25;100407.13;;;6.71;99.93
12781;BME280;6454;43.304;24.344;2022-12-07T02:47:56;100418.50;;;6.73;99.86
12781;BME280;6454;43.304;24.344;2022-12-07T02:50:26;100415.25;;;6.76;99.75
12781;BME280;6454;43.304;24.344;2022-12-07T02:52:52;100408.75;;;6.72;99.46
12781;BME280;6454;43.304;24.344;2022-12-07T02:55:23;100414.16;;;6.72;99.92
12781;BME280;6454;43.304;24.344;2022-12-07T02:58:07;100405.69;;;6.63;99.72
12781;BME280;6454;43.304;24.344;2022-12-07T03:00:45;100394.38;;;6.61;99.89
12781;BME280;6454;43.304;24.344;2022-12-07T03:03:14;100396.78;;;6.58;99.71
12781;BME280;6454;43.304;24.344;2022-12-07T03:05:54;100391.44;;;6.63;98.53
12781;BME280;6454;43.304;24.344;2022-12-07T03:08:31;100386.03;;;6.63;98.07
12781;BME280;6454;43.304;24.344;2022-12-07T03:11:05;100395.13;;;6.57;97.99
12781;BME280;6454;43.304;24.344;2022-12-07T03:13:38;100394.25;;;6.51;98.04
12781;BME280;6454;43.304;24.344;2022-12-07T03:16:14;100400.47;;;6.52;96.92
12781;BME280;6454;43.304;24.344;2022-12-07T03:18:46;100398.69;;;6.35;97.58
12781;BME280;6454;43.304;24.344;2022-12-07T03:21:17;100401.38;;;6.35;98.50
12781;BME280;6454;43.304;24.344;2022-12-07T03:23:49;100407.84;;;6.34;98.09
12781;BME280;6454;43.304;24.344;2022-12-07T03:26:18;100395.28;;;6.23;97.75
12781;BME280;6454;43.304;24.344;2022-12-07T03:28:51;100385.91;;;6.26;98.67
12781;BME280;6454;43.304;24.344;2022-12-07T03:31:22;100391.75;;;6.18;98.22
12781;BME280;6454;43.304;24.344;2022-12-07T03:33:55;100399.56;;;6.19;97.51
12781;BME280;6454;43.304;24.344;2022-12-07T03:36:28;100391.44;;;6.14;97.83
12781;BME280;6454;43.304;24.344;2022-12-07T03:39:01;100401.72;;;6.17;96.91
12781;BME280;6454;43.304;24.344;2022-12-07T03:41:31;100402.69;;;6.11;96.37
12781;BME280;6454;43.304;24.344;2022-12-07T03:44:00;100402.63;;;6.06;96.40
12781;BME280;6454;43.304;24.344;2022-12-07T03:46:35;100397.19;;;6.01;96.71
12781;BME280;6454;43.304;24.344;2022-12-07T03:49:08;100387.44;;;5.95;96.93
12781;BME280;6454;43.304;24.344;2022-12-07T03:51:40;100384.41;;;5.92;97.13
12781;BME280;6454;43.304;24.344;2022-12-07T03:54:11;100393.38;;;5.97;96.03
12781;BME280;6454;43.304;24.344;2022-12-07T03:56:40;100380.59;;;5.88;95.86
12781;BME280;6454;43.304;24.344;2022-12-07T03:59:09;100379.53;;;5.89;95.84
12781;BME280;6454;43.304;24.344;2022-12-07T04:01:41;100379.78;;;5.87;97.27
12781;BME280;6454;43.304;24.344;2022-12-07T04:04:08;100382.75;;;5.86;97.19
12781;BME280;6454;43.304;24.344;2022-12-07T04:06:34;100380.84;;;5.86;97.18
12781;BME280;6454;43.304;24.344;2022-12-07T04:09:02;100379.94;;;5.80;97.56
12781;BME280;6454;43.304;24.344;2022-12-07T04:11:29;100385.34;;;5.80;98.04
12781;BME280;6454;43.304;24.344;2022-12-07T04:13:55;100383.28;;;5.88;98.04
12781;BME280;6454;43.304;24.344;2022-12-07T04:16:57;100369.84;;;5.71;98.60
12781;BME280;6454;43.304;24.344;2022-12-07T04:19:26;100357.94;;;5.67;100.00
12781;BME280;6454;43.304;24.344;2022-12-07T04:21:53;100355.06;;;5.73;100.00
12781;BME280;6454;43.304;24.344;2022-12-07T04:24:20;100359.78;;;5.83;99.48
12781;BME280;6454;43.304;24.344;2022-12-07T04:26:47;100358.16;;;5.82;98.28
12781;BME280;6454;43.304;24.344;2022-12-07T04:29:15;100364.84;;;5.79;99.16
12781;BME280;6454;43.304;24.344;2022-12-07T04:31:42;100375.28;;;5.76;98.87
12781;BME280;6454;43.304;24.344;2022-12-07T04:34:11;100371.00;;;5.75;98.91
12781;BME280;6454;43.304;24.344;2022-12-07T04:36:39;100365.28;;;5.71;99.72
12781;BME280;6454;43.304;24.344;2022-12-07T04:39:07;100368.59;;;5.78;99.41
12781;BME280;6454;43.304;24.344;2022-12-07T04:41:34;100368.03;;;5.76;99.42
12781;BME280;6454;43.304;24.344;2022-12-07T04:44:02;100364.44;;;5.71;99.96
12781;BME280;6454;43.304;24.344;2022-12-07T04:46:32;100373.84;;;5.68;100.00
12781;BME280;6454;43.304;24.344;2022-12-07T04:48:59;100370.66;;;5.71;99.66
12781;BME280;6454;43.304;24.344;2022-12-07T04:51:28;100369.75;;;5.66;99.10
12781;BME280;6454;43.304;24.344;2022-12-07T04:53:56;100370.78;;;5.60;99.34
12781;BME280;6454;43.304;24.344;2022-12-07T04:56:23;100370.78;;;5.60;99.56
12781;BME280;6454;43.304;24.344;2022-12-07T04:58:51;100360.78;;;5.55;98.71
12781;BME280;6454;43.304;24.344;2022-12-07T05:01:19;100364.84;;;5.58;98.91
12781;BME280;6454;43.304;24.344;2022-12-07T05:03:46;100353.63;;;5.66;98.14
12781;BME280;6454;43.304;24.344;2022-12-07T05:06:13;100343.94;;;5.65;96.80
12781;BME280;6454;43.304;24.344;2022-12-07T05:08:41;100326.84;;;5.54;96.71
12781;BME280;6454;43.304;24.344;2022-12-07T05:11:09;100299.34;;;5.31;97.90
12781;BME280;6454;43.304;24.344;2022-12-07T05:13:57;100331.16;;;5.55;98.04
12781;BME280;6454;43.304;24.344;2022-12-07T05:16:24;100322.28;;;5.55;97.79
12781;BME280;6454;43.304;24.344;2022-12-07T05:18:51;100332.16;;;5.49;98.14
12781;BME280;6454;43.304;24.344;2022-12-07T05:21:17;100332.41;;;5.48;96.62
12781;BME280;6454;43.304;24.344;2022-12-07T05:23:46;100336.97;;;5.47;97.30
12781;BME280;6454;43.304;24.344;2022-12-07T05:26:12;100347.31;;;5.39;98.26
12781;BME280;6454;43.304;24.344;2022-12-07T05:28:39;100352.47;;;5.40;99.50
12781;BME280;6454;43.304;24.344;2022-12-07T05:31:06;100351.66;;;5.40;98.27
12781;BME280;6454;43.304;24.344;2022-12-07T05:33:33;100355.91;;;5.36;99.21
12781;BME280;6454;43.304;24.344;2022-12-07T05:36:00;100365.78;;;5.30;100.00
12781;BME280;6454;43.304;24.344;2022-12-07T05:38:31;100362.91;;;5.37;100.00
12781;BME280;6454;43.304;24.344;2022-12-07T05:41:01;100357.38;;;5.43;100.00
12781;BME280;6454;43.304;24.344;2022-12-07T05:43:28;100342.03;;;5.44;100.00
12781;BME280;6454;43.304;24.344;2022-12-07T05:45:55;100349.66;;;5.52;100.00
12781;BME280;6454;43.304;24.344;2022-12-07T05:48:22;100354.16;;;5.63;100.00
12781;BME280;6454;43.304;24.344;2022-12-07T05:50:50;100354.44;;;5.66;100.00
12781;BME280;6454;43.304;24.344;2022-12-07T05:53:17;100350.31;;;5.59;100.00
12781;BME280;6454;43.304;24.344;2022-12-07T05:55:44;100349.00;;;5.61;100.00
12781;BME280;6454;43.304;24.344;2022-12-07T05:58:12;100356.63;;;5.69;100.00
12781;BME280;6454;43.304;24.344;2022-12-07T06:00:56;100349.31;;;5.65;100.00
12781;BME280;6454;43.304;24.344;2022-12-07T06:03:23;100345.00;;;5.64;100.00
12781;BME280;6454;43.304;24.344;2022-12-07T06:05:51;100352.91;;;5.70;100.00
12781;BME280;6454;43.304;24.344;2022-12-07T06:08:19;100339.81;;;5.79;100.00
12781;BME280;6454;43.304;24.344;2022-12-07T06:10:47;100340.28;;;5.76;100.00
12781;BME280;6454;43.304;24.344;2022-12-07T06:13:36;100332.81;;;5.78;100.00
12781;BME280;6454;43.304;24.344;2022-12-07T06:16:02;100333.47;;;5.85;100.00
12781;BME280;6454;43.304;24.344;2022-12-07T06:18:29;100324.22;;;5.81;100.00
12781;BME280;6454;43.304;24.344;2022-12-07T06:20:55;100326.78;;;5.71;100.00
12781;BME280;6454;43.304;24.344;2022-12-07T06:23:22;100335.56;;;5.83;100.00
12781;BME280;6454;43.304;24.344;2022-12-07T06:25:49;100343.22;;;5.91;100.00
12781;BME280;6454;43.304;24.344;2022-12-07T06:28:16;100346.16;;;5.90;100.00
12781;BME280;6454;43.304;24.344;2022-12-07T06:30:44;100338.91;;;5.90;100.00
12781;BME280;6454;43.304;24.344;2022-12-07T06:33:10;100342.72;;;5.94;100.00
12781;BME280;6454;43.304;24.344;2022-12-07T06:35:37;100346.22;;;5.95;100.00
12781;BME280;6454;43.304;24.344;2022-12-07T06:38:04;100337.03;;;5.91;100.00
12781;BME280;6454;43.304;24.344;2022-12-07T06:40:31;100344.59;;;5.94;100.00
12781;BME280;6454;43.304;24.344;2022-12-07T06:42:57;100342.53;;;6.01;100.00
12781;BME280;6454;43.304;24.344;2022-12-07T06:45:24;100356.78;;;6.01;100.00
12781;BME280;6454;43.304;24.344;2022-12-07T06:47:52;100361.44;;;6.06;100.00
12781;BME280;6454;43.304;24.344;2022-12-07T06:50:19;100358.00;;;6.10;100.00
12781;BME280;6454;43.304;24.344;2022-12-07T06:52:46;100365.59;;;6.18;100.00
12781;BME280;6454;43.304;24.344;2022-12-07T06:55:13;100369.38;;;6.17;100.00
12781;BME280;6454;43.304;24.344;2022-12-07T06:57:40;100371.59;;;6.20;100.00
12781;BME280;6454;43.304;24.344;2022-12-07T07:00:07;100367.88;;;6.26;100.00
12781;BME280;6454;43.304;24.344;2022-12-07T07:02:34;100367.03;;;6.26;100.00
12781;BME280;6454;43.304;24.344;2022-12-07T07:05:02;100374.88;;;6.27;100.00
12781;BME280;6454;43.304;24.344;2022-12-07T07:07:29;100375.19;;;6.31;100.00
12781;BME280;6454;43.304;24.344;2022-12-07T07:09:56;100376.56;;;6.33;100.00
12781;BME280;6454;43.304;24.344;2022-12-07T07:12:23;100369.56;;;6.32;100.00
12781;BME280;6454;43.304;24.344;2022-12-07T07:14:50;100374.19;;;6.37;100.00
12781;BME280;6454;43.304;24.344;2022-12-07T07:17:16;100372.88;;;6.39;100.00
12781;BME280;6454;43.304;24.344;2022-12-07T07:19:43;100369.47;;;6.49;100.00
12781;BME280;6454;43.304;24.344;2022-12-07T07:22:11;100365.66;;;6.45;100.00
12781;BME280;6454;43.304;24.344;2022-12-07T07:24:38;100361.91;;;6.51;100.00
12781;BME280;6454;43.304;24.344;2022-12-07T07:27:05;100371.44;;;6.59;100.00
12781;BME280;6454;43.304;24.344;2022-12-07T07:29:32;100371.44;;;6.59;100.00
12781;BME280;6454;43.304;24.344;2022-12-07T07:31:59;100369.00;;;6.57;100.00
12781;BME280;6454;43.304;24.344;2022-12-07T07:34:26;100367.69;;;6.60;100.00
12781;BME280;6454;43.304;24.344;2022-12-07T07:36:53;100365.03;;;6.65;100.00
12781;BME280;6454;43.304;24.344;2022-12-07T07:39:21;100365.81;;;6.60;100.00
12781;BME280;6454;43.304;24.344;2022-12-07T07:41:48;100375.81;;;6.65;100.00
12781;BME280;6454;43.304;24.344;2022-12-07T07:44:15;100368.84;;;6.69;100.00
12781;BME280;6454;43.304;24.344;2022-12-07T07:46:41;100365.31;;;6.68;100.00
12781;BME280;6454;43.304;24.344;2022-12-07T07:49:08;100373.66;;;6.67;100.00
12781;BME280;6454;43.304;24.344;2022-12-07T07:51:36;100362.94;;;6.72;100.00
12781;BME280;6454;43.304;24.344;2022-12-07T07:54:03;100360.75;;;6.69;100.00
12781;BME280;6454;43.304;24.344;2022-12-07T07:56:32;100358.88;;;6.69;100.00
12781;BME280;6454;43.304;24.344;2022-12-07T07:58:58;100361.25;;;6.66;100.00
12781;BME280;6454;43.304;24.344;2022-12-07T08:01:25;100363.66;;;6.62;100.00
12781;BME280;6454;43.304;24.344;2022-12-07T08:03:52;100358.56;;;6.66;100.00
12781;BME280;6454;43.304;24.344;2022-12-07T08:06:18;100358.56;;;6.66;100.00
12781;BME280;6454;43.304;24.344;2022-12-07T08:08:45;100364.81;;;6.71;100.00
12781;BME280;6454;43.304;24.344;2022-12-07T08:11:12;100358.88;;;6.69;100.00
12781;BME280;6454;43.304;24.344;2022-12-07T08:13:40;100358.16;;;6.79;100.00
12781;BME280;6454;43.304;24.344;2022-12-07T08:16:09;100351.97;;;6.83;100.00
12781;BME280;6454;43.304;24.344;2022-12-07T08:18:36;100350.66;;;6.86;100.00
12781;BME280;6454;43.304;24.344;2022-12-07T08:21:04;100344.50;;;6.90;100.00
12781;BME280;6454;43.304;24.344;2022-12-07T08:23:49;100349.41;;;6.98;100.00
12781;BME280;6454;43.304;24.344;2022-12-07T08:26:16;100346.72;;;6.98;100.00
12781;BME280;6454;43.304;24.344;2022-12-07T08:28:44;100346.47;;;7.00;100.00
12781;BME280;6454;43.304;24.344;2022-12-07T08:31:13;100348.09;;;7.01;100.00
12781;BME280;6454;43.304;24.344;2022-12-07T08:33:41;100348.44;;;7.09;99.64
12781;BME280;6454;43.304;24.344;2022-12-07T08:36:09;100349.28;;;7.15;99.03
12781;BME280;6454;43.304;24.344;2022-12-07T08:38:38;100347.34;;;7.10;99.32
12781;BME280;6454;43.304;24.344;2022-12-07T08:41:05;100333.38;;;7.19;99.60
12781;BME280;6454;43.304;24.344;2022-12-07T08:43:32;100342.31;;;7.24;99.14
12781;BME280;6454;43.304;24.344;2022-12-07T08:46:06;100333.69;;;7.22;99.46
12781;BME280;6454;43.304;24.344;2022-12-07T08:48:37;100337.50;;;7.31;99.94
12781;BME280;6454;43.304;24.344;2022-12-07T08:51:05;100333.78;;;7.37;100.00
12781;BME280;6454;43.304;24.344;2022-12-07T08:53:33;100339.22;;;7.42;99.35
12781;BME280;6454;43.304;24.344;2022-12-07T08:56:00;100329.50;;;7.46;98.18
12781;BME280;6454;43.304;24.344;2022-12-07T08:58:27;100329.81;;;7.50;97.69
12781;BME280;6454;43.304;24.344;2022-12-07T09:00:54;100326.25;;;7.44;97.87
12781;BME280;6454;43.304;24.344;2022-12-07T09:03:22;100321.16;;;7.48;98.06
12781;BME280;6454;43.304;24.344;2022-12-07T09:05:49;100310.59;;;7.41;97.03
12781;BME280;6454;43.304;24.344;2022-12-07T09:08:16;100325.19;;;7.45;97.65
12781;BME280;6454;43.304;24.344;2022-12-07T09:10:43;100312.78;;;7.49;98.04
12781;BME280;6454;43.304;24.344;2022-12-07T09:13:09;100316.59;;;7.53;97.43
12781;BME280;6454;43.304;24.344;2022-12-07T09:15:36;100306.88;;;7.52;97.84
12781;BME280;6454;43.304;24.344;2022-12-07T09:18:03;100309.31;;;7.54;98.01
12781;BME280;6454;43.304;24.344;2022-12-07T09:20:31;100295.28;;;7.57;97.96
12781;BME280;6454;43.304;24.344;2022-12-07T09:22:58;100306.13;;;7.67;97.68
12781;BME280;6454;43.304;24.344;2022-12-07T09:25:25;100298.31;;;7.75;96.92
12781;BME280;6454;43.304;24.344;2022-12-07T09:27:55;100296.47;;;7.86;96.68
12781;BME280;6454;43.304;24.344;2022-12-07T09:30:23;100282.72;;;7.88;96.45
12781;BME280;6454;43.304;24.344;2022-12-07T09:32:49;100296.78;;;7.90;96.21
12781;BME280;6454;43.304;24.344;2022-12-07T09:35:16;100281.13;;;8.02;95.23
12781;BME280;6454;43.304;24.344;2022-12-07T09:37:44;100283.03;;;8.06;94.24
12781;BME280;6454;43.304;24.344;2022-12-07T09:40:12;100274.66;;;8.13;94.93
12781;BME280;6454;43.304;24.344;2022-12-07T09:42:42;100269.84;;;8.15;94.61
12781;BME280;6454;43.304;24.344;2022-12-07T09:45:14;100272.81;;;8.23;94.98
12781;BME280;6454;43.304;24.344;2022-12-07T09:47:41;100271.78;;;8.34;94.82
12781;BME280;6454;43.304;24.344;2022-12-07T09:50:14;100263.09;;;8.22;93.55
12781;BME280;6454;43.304;24.344;2022-12-07T09:52:42;100257.34;;;7.99;93.98
12781;BME280;6454;43.304;24.344;2022-12-07T09:55:13;100257.94;;;8.21;94.19
12781;BME280;6454;43.304;24.344;2022-12-07T09:57:41;100207.38;;;7.96;93.54
12781;BME280;6454;43.304;24.344;2022-12-07T10:00:13;100250.66;;;8.21;93.42
12781;BME280;6454;43.304;24.344;2022-12-07T10:02:42;100254.41;;;8.20;93.82
12781;BME280;6454;43.304;24.344;2022-12-07T10:05:13;100238.00;;;8.27;93.65
12781;BME280;6454;43.304;24.344;2022-12-07T10:07:40;100233.13;;;8.34;92.82
12781;BME280;6454;43.304;24.344;2022-12-07T10:10:14;100232.06;;;8.40;93.56
12781;BME280;6454;43.304;24.344;2022-12-07T10:13:00;100233.66;;;8.41;93.20
12781;BME280;6454;43.304;24.344;2022-12-07T10:15:48;100227.72;;;8.54;93.31
12781;BME280;6454;43.304;24.344;2022-12-07T10:18:31;100221.50;;;8.59;92.46
12781;BME280;6454;43.304;24.344;2022-12-07T10:21:10;100215.03;;;8.60;92.47
12781;BME280;6454;43.304;24.344;2022-12-07T10:23:39;100214.22;;;8.49;92.86
12781;BME280;6454;43.304;24.344;2022-12-07T10:26:30;100210.41;;;8.55;93.29
12781;BME280;6454;43.304;24.344;2022-12-07T10:28:59;100210.38;;;8.70;92.84
12781;BME280;6454;43.304;24.344;2022-12-07T10:31:27;100199.31;;;8.67;92.48
12781;BME280;6454;43.304;24.344;2022-12-07T10:33:55;100205.25;;;8.74;93.10
12781;BME280;6454;43.304;24.344;2022-12-07T10:36:24;100187.41;;;8.68;92.54
12781;BME280;6454;43.304;24.344;2022-12-07T10:38:53;100198.22;;;8.78;92.76
12781;BME280;6454;43.304;24.344;2022-12-07T10:41:26;100196.06;;;8.80;93.32
12781;BME280;6454;43.304;24.344;2022-12-07T10:43:54;100185.47;;;8.88;93.22
12781;BME280;6454;43.304;24.344;2022-12-07T10:49:55;100186.53;;;8.92;92.12
12781;BME280;6454;43.304;24.344;2022-12-07T10:52:45;100181.44;;;8.86;92.59
12781;BME280;6454;43.304;24.344;2022-12-07T10:55:22;100172.22;;;8.92;93.56
12781;BME280;6454;43.304;24.344;2022-12-07T10:58:01;100176.28;;;8.94;93.47
12781;BME280;6454;43.304;24.344;2022-12-07T11:00:37;100167.59;;;8.92;92.62
12781;BME280;6454;43.304;24.344;2022-12-07T11:03:40;100159.22;;;8.99;93.15
12781;BME280;6454;43.304;24.344;2022-12-07T11:06:19;100158.38;;;9.03;95.24
12781;BME280;6454;43.304;24.344;2022-12-07T11:09:02;100162.97;;;9.08;94.78
12781;BME280;6454;43.304;24.344;2022-12-07T11:11:34;100141.09;;;9.04;94.25
12781;BME280;6454;43.304;24.344;2022-12-07T11:14:10;100150.50;;;9.17;93.61
12781;BME280;6454;43.304;24.344;2022-12-07T11:16:50;100145.34;;;9.16;94.04
12781;BME280;6454;43.304;24.344;2022-12-07T11:19:31;100145.06;;;9.22;93.66
12781;BME280;6454;43.304;24.344;2022-12-07T11:22:05;100134.50;;;9.21;93.08
12781;BME280;6454;43.304;24.344;2022-12-07T11:24:40;100136.69;;;9.19;93.20
12781;BME280;6454;43.304;24.344;2022-12-07T11:27:19;100133.94;;;9.24;92.88
12781;BME280;6454;43.304;24.344;2022-12-07T11:30:16;100141.28;;;9.18;92.63
12781;BME280;6454;43.304;24.344;2022-12-07T11:32:59;100127.78;;;9.13;92.87
12781;BME280;6454;43.304;24.344;2022-12-07T11:35:38;100094.84;;;8.91;93.40
12781;BME280;6454;43.304;24.344;2022-12-07T11:38:13;100127.53;;;9.10;93.43
12781;BME280;6454;43.304;24.344;2022-12-07T11:40:43;100127.78;;;9.08;93.86
12781;BME280;6454;43.304;24.344;2022-12-07T11:43:19;100115.91;;;9.09;94.15
12781;BME280;6454;43.304;24.344;2022-12-07T11:45:53;100112.38;;;9.03;94.35
12781;BME280;6454;43.304;24.344;2022-12-07T11:48:30;100112.09;;;9.05;94.87
12781;BME280;6454;43.304;24.344;2022-12-07T11:51:00;100105.34;;;9.02;95.03
12781;BME280;6454;43.304;24.344;2022-12-07T11:53:33;100101.84;;;9.07;95.27
12781;BME280;6454;43.304;24.344;2022-12-07T11:56:05;100101.25;;;9.10;95.00
12781;BME280;6454;43.304;24.344;2022-12-07T11:58:57;100095.84;;;9.10;94.85
12781;BME280;6454;43.304;24.344;2022-12-07T12:01:35;100100.72;;;9.13;95.37
12781;BME280;6454;43.304;24.344;2022-12-07T12:04:23;100096.41;;;9.12;95.34
12781;BME280;6454;43.304;24.344;2022-12-07T12:06:52;100104.72;;;9.21;95.39
12781;BME280;6454;43.304;24.344;2022-12-07T12:09:25;100094.44;;;9.23;95.34
12781;BME280;6454;43.304;24.344;2022-12-07T12:12:36;100090.66;;;9.24;95.33
12781;BME280;6454;43.304;24.344;2022-12-07T12:15:23;100092.56;;;9.18;95.04
12781;BME280;6454;43.304;24.344;2022-12-07T12:18:19;100088.81;;;9.14;95.05
12781;BME280;6454;43.304;24.344;2022-12-07T12:20:55;100080.66;;;9.19;94.97
12781;BME280;6454;43.304;24.344;2022-12-07T12:23:29;100071.44;;;9.20;95.61
12781;BME280;6454;43.304;24.344;2022-12-07T12:26:03;100079.56;;;9.20;95.28
12781;BME280;6454;43.304;24.344;2022-12-07T12:28:36;100077.16;;;9.19;95.02
12781;BME280;6454;43.304;24.344;2022-12-07T12:31:08;100075.81;;;9.16;94.92
12781;BME280;6454;43.304;24.344;2022-12-07T12:33:38;100073.66;;;9.13;95.70
12781;BME280;6454;43.304;24.344;2022-12-07T12:36:43;100074.47;;;9.14;95.08
12781;BME280;6454;43.304;24.344;2022-12-07T12:39:12;100077.16;;;9.19;95.13
12781;BME280;6454;43.304;24.344;2022-12-07T12:41:59;100056.38;;;9.04;95.04
12781;BME280;6454;43.304;24.344;2022-12-07T12:47:42;100069.59;;;9.11;96.20
12781;BME280;6454;43.304;24.344;2022-12-07T12:50:19;100063.63;;;9.14;95.86
12781;BME280;6454;43.304;24.344;2022-12-07T12:52:58;100064.69;;;9.18;95.79
12781;BME280;6454;43.304;24.344;2022-12-07T12:58:41;100070.88;;;9.23;96.05
12781;BME280;6454;43.304;24.344;2022-12-07T13:01:38;100074.41;;;9.24;94.87
12781;BME280;6454;43.304;24.344;2022-12-07T13:04:34;100059.03;;;9.14;95.54
12781;BME280;6454;43.304;24.344;2022-12-07T13:07:10;100055.81;;;9.12;96.30
12781;BME280;6454;43.304;24.344;2022-12-07T13:09:43;100059.59;;;9.11;96.52
12781;BME280;6454;43.304;24.344;2022-12-07T13:12:13;100050.94;;;9.09;97.90
12781;BME280;6454;43.304;24.344;2022-12-07T13:14:57;100061.47;;;9.16;97.82
12781;BME280;6454;43.304;24.344;2022-12-07T13:17:59;100056.06;;;9.11;97.44
12781;BME280;6454;43.304;24.344;2022-12-07T13:20:51;100049.59;;;9.12;97.67
12781;BME280;6454;43.304;24.344;2022-12-07T13:23:31;100044.97;;;9.17;97.51
12781;BME280;6454;43.304;24.344;2022-12-07T13:26:12;100035.50;;;9.15;97.83
12781;BME280;6454;43.304;24.344;2022-12-07T13:28:42;100037.63;;;9.18;97.65
12781;BME280;6454;43.304;24.344;2022-12-07T13:33:54;100040.34;;;9.13;98.99